sensor_id;sensor_type;location;lat;lon;timestamp;P1;durP1;ratioP1;P2;durP2;ratioP2
60014;SDS011;45867;52.480;6.056;2023-07-30T00:02:25;13.00;;;2.72;;
60014;SDS011;45867;52.480;6.056;2023-07-30T00:04:51;10.30;;;2.47;;
60014;SDS011;45867;52.480;6.056;2023-07-30T00:07:19;6.13;;;2.22;;
60014;SDS011;45867;52.480;6.056;2023-07-30T00:09:46;10.63;;;2.78;;
60014;SDS011;45867;52.480;6.056;2023-07-30T00:12:13;10.93;;;3.03;;
60014;SDS011;45867;52.480;6.056;2023-07-30T00:14:39;13.00;;;2.75;;
60014;SDS011;45867;52.480;6.056;2023-07-30T00:17:07;17.08;;;2.90;;
60014;SDS011;45867;52.480;6.056;2023-07-30T00:19:33;17.08;;;3.22;;
60014;SDS011;45867;52.480;6.056;2023-07-30T00:22:00;17.90;;;3.88;;
60014;SDS011;45867;52.480;6.056;2023-07-30T00:24:27;18.70;;;3.08;;
60014;SDS011;45867;52.480;6.056;2023-07-30T00:26:56;12.77;;;2.88;;
60014;SDS011;45867;52.480;6.056;2023-07-30T00:29:26;12.23;;;2.97;;
60014;SDS011;45867;52.480;6.056;2023-07-30T00:31:52;13.18;;;2.63;;
60014;SDS011;45867;52.480;6.056;2023-07-30T00:34:21;11.38;;;2.70;;
60014;SDS011;45867;52.480;6.056;2023-07-30T00:36:48;14.30;;;2.97;;
60014;SDS011;45867;52.480;6.056;2023-07-30T00:39:14;21.92;;;3.08;;
60014;SDS011;45867;52.480;6.056;2023-07-30T00:41:40;10.43;;;2.90;;
60014;SDS011;45867;52.480;6.056;2023-07-30T00:44:10;14.45;;;2.95;;
60014;SDS011;45867;52.480;6.056;2023-07-30T00:46:36;14.35;;;2.53;;
60014;SDS011;45867;52.480;6.056;2023-07-30T00:49:03;21.58;;;3.42;;
60014;SDS011;45867;52.480;6.056;2023-07-30T00:51:33;13.90;;;3.35;;
60014;SDS011;45867;52.480;6.056;2023-07-30T00:54:01;10.15;;;2.28;;
60014;SDS011;45867;52.480;6.056;2023-07-30T00:56:28;17.95;;;2.88;;
60014;SDS011;45867;52.480;6.056;2023-07-30T00:58:55;16.35;;;3.05;;
60014;SDS011;45867;52.480;6.056;2023-07-30T01:01:27;9.45;;;2.58;;
60014;SDS011;45867;52.480;6.056;2023-07-30T01:03:59;12.18;;;2.65;;
60014;SDS011;45867;52.480;6.056;2023-07-30T01:06:29;12.70;;;2.72;;
60014;SDS011;45867;52.480;6.056;2023-07-30T01:08:56;12.80;;;3.13;;
60014;SDS011;45867;52.480;6.056;2023-07-30T01:11:22;13.70;;;2.50;;
60014;SDS011;45867;52.480;6.056;2023-07-30T01:13:52;17.70;;;3.05;;
60014;SDS011;45867;52.480;6.056;2023-07-30T01:16:24;12.77;;;3.17;;
60014;SDS011;45867;52.480;6.056;2023-07-30T01:18:59;12.95;;;2.80;;
60014;SDS011;45867;52.480;6.056;2023-07-30T01:21:25;9.13;;;2.08;;
60014;SDS011;45867;52.480;6.056;2023-07-30T01:23:51;13.25;;;2.83;;
60014;SDS011;45867;52.480;6.056;2023-07-30T01:26:22;10.32;;;2.58;;
60014;SDS011;45867;52.480;6.056;2023-07-30T01:28:56;6.55;;;2.25;;
60014;SDS011;45867;52.480;6.056;2023-07-30T01:31:33;13.93;;;2.75;;
60014;SDS011;45867;52.480;6.056;2023-07-30T01:34:02;10.82;;;2.42;;
60014;SDS011;45867;52.480;6.056;2023-07-30T01:36:30;12.88;;;2.50;;
60014;SDS011;45867;52.480;6.056;2023-07-30T01:38:58;18.45;;;3.00;;
60014;SDS011;45867;52.480;6.056;2023-07-30T01:41:25;15.40;;;2.90;;
60014;SDS011;45867;52.480;6.056;2023-07-30T01:43:53;8.32;;;2.20;;
60014;SDS011;45867;52.480;6.056;2023-07-30T01:46:22;11.73;;;2.80;;
60014;SDS011;45867;52.480;6.056;2023-07-30T01:49:02;9.88;;;2.25;;
60014;SDS011;45867;52.480;6.056;2023-07-30T01:51:28;14.73;;;2.38;;
60014;SDS011;45867;52.480;6.056;2023-07-30T01:53:55;9.70;;;2.70;;
60014;SDS011;45867;52.480;6.056;2023-07-30T01:56:21;14.02;;;2.63;;
60014;SDS011;45867;52.480;6.056;2023-07-30T01:58:57;17.50;;;2.78;;
60014;SDS011;45867;52.480;6.056;2023-07-30T02:01:26;12.63;;;2.60;;
60014;SDS011;45867;52.480;6.056;2023-07-30T02:03:57;11.50;;;2.77;;
60014;SDS011;45867;52.480;6.056;2023-07-30T02:06:25;12.57;;;2.67;;
60014;SDS011;45867;52.480;6.056;2023-07-30T02:08:54;12.50;;;2.63;;
60014;SDS011;45867;52.480;6.056;2023-07-30T02:11:25;14.65;;;3.30;;
60014;SDS011;45867;52.480;6.056;2023-07-30T02:13:56;8.70;;;2.67;;
60014;SDS011;45867;52.480;6.056;2023-07-30T02:16:25;11.88;;;2.97;;
60014;SDS011;45867;52.480;6.056;2023-07-30T02:18:52;12.02;;;2.92;;
60014;SDS011;45867;52.480;6.056;2023-07-30T02:21:23;9.25;;;2.58;;
60014;SDS011;45867;52.480;6.056;2023-07-30T02:23:52;12.90;;;2.63;;
60014;SDS011;45867;52.480;6.056;2023-07-30T02:26:21;10.45;;;2.80;;
60014;SDS011;45867;52.480;6.056;2023-07-30T02:28:47;16.42;;;3.55;;
60014;SDS011;45867;52.480;6.056;2023-07-30T02:31:14;8.80;;;2.90;;
60014;SDS011;45867;52.480;6.056;2023-07-30T02:33:40;21.75;;;3.25;;
60014;SDS011;45867;52.480;6.056;2023-07-30T02:36:13;13.75;;;3.10;;
60014;SDS011;45867;52.480;6.056;2023-07-30T02:38:39;11.60;;;3.05;;
60014;SDS011;45867;52.480;6.056;2023-07-30T02:41:08;11.10;;;3.55;;
60014;SDS011;45867;52.480;6.056;2023-07-30T02:43:37;10.00;;;2.80;;
60014;SDS011;45867;52.480;6.056;2023-07-30T02:46:09;11.82;;;3.00;;
60014;SDS011;45867;52.480;6.056;2023-07-30T02:48:43;15.73;;;3.88;;
60014;SDS011;45867;52.480;6.056;2023-07-30T02:51:21;15.02;;;3.28;;
60014;SDS011;45867;52.480;6.056;2023-07-30T02:53:48;12.27;;;2.85;;
60014;SDS011;45867;52.480;6.056;2023-07-30T02:56:21;16.52;;;3.28;;
60014;SDS011;45867;52.480;6.056;2023-07-30T02:58:50;13.80;;;3.20;;
60014;SDS011;45867;52.480;6.056;2023-07-30T03:01:22;20.13;;;3.88;;
60014;SDS011;45867;52.480;6.056;2023-07-30T03:03:51;18.40;;;3.42;;
60014;SDS011;45867;52.480;6.056;2023-07-30T03:06:26;18.13;;;3.58;;
60014;SDS011;45867;52.480;6.056;2023-07-30T03:08:56;16.02;;;3.65;;
60014;SDS011;45867;52.480;6.056;2023-07-30T03:11:25;15.35;;;3.85;;
60014;SDS011;45867;52.480;6.056;2023-07-30T03:13:52;16.08;;;3.22;;
60014;SDS011;45867;52.480;6.056;2023-07-30T03:16:20;15.38;;;3.42;;
60014;SDS011;45867;52.480;6.056;2023-07-30T03:18:55;16.85;;;3.65;;
60014;SDS011;45867;52.480;6.056;2023-07-30T03:21:22;17.52;;;3.63;;
60014;SDS011;45867;52.480;6.056;2023-07-30T03:23:58;22.63;;;3.63;;
60014;SDS011;45867;52.480;6.056;2023-07-30T03:26:30;21.40;;;4.68;;
60014;SDS011;45867;52.480;6.056;2023-07-30T03:28:59;17.92;;;4.15;;
60014;SDS011;45867;52.480;6.056;2023-07-30T03:31:27;20.38;;;3.85;;
60014;SDS011;45867;52.480;6.056;2023-07-30T03:33:57;13.85;;;3.75;;
60014;SDS011;45867;52.480;6.056;2023-07-30T03:36:26;14.65;;;3.55;;
60014;SDS011;45867;52.480;6.056;2023-07-30T03:38:56;16.98;;;3.05;;
60014;SDS011;45867;52.480;6.056;2023-07-30T03:41:31;19.23;;;4.10;;
60014;SDS011;45867;52.480;6.056;2023-07-30T03:44:00;21.35;;;3.80;;
60014;SDS011;45867;52.480;6.056;2023-07-30T03:46:27;14.50;;;3.63;;
60014;SDS011;45867;52.480;6.056;2023-07-30T03:49:01;11.05;;;3.55;;
60014;SDS011;45867;52.480;6.056;2023-07-30T03:51:31;25.15;;;3.95;;
60014;SDS011;45867;52.480;6.056;2023-07-30T03:53:57;21.00;;;3.38;;
60014;SDS011;45867;52.480;6.056;2023-07-30T03:56:24;15.73;;;3.88;;
60014;SDS011;45867;52.480;6.056;2023-07-30T03:59:05;12.27;;;3.40;;
60014;SDS011;45867;52.480;6.056;2023-07-30T04:01:31;20.55;;;4.25;;
60014;SDS011;45867;52.480;6.056;2023-07-30T04:03:58;20.00;;;3.58;;
60014;SDS011;45867;52.480;6.056;2023-07-30T04:06:24;20.63;;;4.00;;
60014;SDS011;45867;52.480;6.056;2023-07-30T04:09:05;17.00;;;3.80;;
60014;SDS011;45867;52.480;6.056;2023-07-30T04:11:31;23.80;;;4.38;;
60014;SDS011;45867;52.480;6.056;2023-07-30T04:14:00;21.15;;;4.43;;
60014;SDS011;45867;52.480;6.056;2023-07-30T04:16:28;14.55;;;3.55;;
60014;SDS011;45867;52.480;6.056;2023-07-30T04:18:55;24.92;;;5.32;;
60014;SDS011;45867;52.480;6.056;2023-07-30T04:21:26;17.55;;;4.10;;
60014;SDS011;45867;52.480;6.056;2023-07-30T04:23:52;15.45;;;3.60;;
60014;SDS011;45867;52.480;6.056;2023-07-30T04:26:21;21.10;;;3.92;;
60014;SDS011;45867;52.480;6.056;2023-07-30T04:28:56;23.98;;;4.20;;
60014;SDS011;45867;52.480;6.056;2023-07-30T04:31:26;25.95;;;4.60;;
60014;SDS011;45867;52.480;6.056;2023-07-30T04:33:56;15.77;;;4.20;;
60014;SDS011;45867;52.480;6.056;2023-07-30T04:36:22;25.75;;;4.35;;
60014;SDS011;45867;52.480;6.056;2023-07-30T04:38:52;20.10;;;4.43;;
60014;SDS011;45867;52.480;6.056;2023-07-30T04:41:48;22.63;;;4.60;;
60014;SDS011;45867;52.480;6.056;2023-07-30T04:44:14;22.65;;;4.00;;
60014;SDS011;45867;52.480;6.056;2023-07-30T04:46:40;25.40;;;3.83;;
60014;SDS011;45867;52.480;6.056;2023-07-30T04:49:07;26.65;;;5.10;;
60014;SDS011;45867;52.480;6.056;2023-07-30T04:51:36;24.25;;;4.70;;
60014;SDS011;45867;52.480;6.056;2023-07-30T04:54:03;26.23;;;4.60;;
60014;SDS011;45867;52.480;6.056;2023-07-30T04:56:30;24.10;;;4.75;;
60014;SDS011;45867;52.480;6.056;2023-07-30T04:58:56;32.92;;;4.97;;
60014;SDS011;45867;52.480;6.056;2023-07-30T05:01:40;22.23;;;4.82;;
60014;SDS011;45867;52.480;6.056;2023-07-30T05:04:07;14.73;;;5.05;;
60014;SDS011;45867;52.480;6.056;2023-07-30T05:06:34;24.92;;;5.50;;
60014;SDS011;45867;52.480;6.056;2023-07-30T05:09:02;15.63;;;3.97;;
60014;SDS011;45867;52.480;6.056;2023-07-30T05:11:29;31.35;;;5.95;;
60014;SDS011;45867;52.480;6.056;2023-07-30T05:13:55;24.00;;;4.97;;
60014;SDS011;45867;52.480;6.056;2023-07-30T05:16:22;26.17;;;4.95;;
60014;SDS011;45867;52.480;6.056;2023-07-30T05:18:50;21.38;;;4.60;;
60014;SDS011;45867;52.480;6.056;2023-07-30T05:21:26;26.63;;;5.05;;
60014;SDS011;45867;52.480;6.056;2023-07-30T05:23:55;21.02;;;4.60;;
60014;SDS011;45867;52.480;6.056;2023-07-30T05:26:21;26.15;;;5.03;;
60014;SDS011;45867;52.480;6.056;2023-07-30T05:28:50;21.10;;;4.60;;
60014;SDS011;45867;52.480;6.056;2023-07-30T05:31:20;28.50;;;4.95;;
60014;SDS011;45867;52.480;6.056;2023-07-30T05:33:46;27.27;;;5.22;;
60014;SDS011;45867;52.480;6.056;2023-07-30T05:36:13;23.45;;;4.78;;
60014;SDS011;45867;52.480;6.056;2023-07-30T05:38:39;26.92;;;4.90;;
60014;SDS011;45867;52.480;6.056;2023-07-30T05:41:08;20.92;;;5.15;;
60014;SDS011;45867;52.480;6.056;2023-07-30T05:43:35;25.88;;;5.78;;
60014;SDS011;45867;52.480;6.056;2023-07-30T05:46:03;16.77;;;5.18;;
60014;SDS011;45867;52.480;6.056;2023-07-30T05:48:32;33.90;;;5.90;;
60014;SDS011;45867;52.480;6.056;2023-07-30T05:50:58;23.33;;;6.38;;
60014;SDS011;45867;52.480;6.056;2023-07-30T05:53:25;30.15;;;6.07;;
60014;SDS011;45867;52.480;6.056;2023-07-30T05:55:51;21.73;;;5.15;;
60014;SDS011;45867;52.480;6.056;2023-07-30T05:58:38;28.80;;;6.45;;
60014;SDS011;45867;52.480;6.056;2023-07-30T06:01:05;31.95;;;6.78;;
60014;SDS011;45867;52.480;6.056;2023-07-30T06:03:31;23.58;;;5.78;;
60014;SDS011;45867;52.480;6.056;2023-07-30T06:06:00;25.63;;;7.20;;
60014;SDS011;45867;52.480;6.056;2023-07-30T06:08:29;32.47;;;7.47;;
60014;SDS011;45867;52.480;6.056;2023-07-30T06:11:02;24.98;;;7.38;;
60014;SDS011;45867;52.480;6.056;2023-07-30T06:13:29;32.28;;;6.82;;
60014;SDS011;45867;52.480;6.056;2023-07-30T06:15:56;32.10;;;7.72;;
60014;SDS011;45867;52.480;6.056;2023-07-30T06:18:30;23.83;;;5.65;;
60014;SDS011;45867;52.480;6.056;2023-07-30T06:20:56;22.67;;;6.05;;
60014;SDS011;45867;52.480;6.056;2023-07-30T06:23:25;27.25;;;7.65;;
60014;SDS011;45867;52.480;6.056;2023-07-30T06:25:51;26.52;;;6.05;;
60014;SDS011;45867;52.480;6.056;2023-07-30T06:28:20;18.52;;;5.63;;
60014;SDS011;45867;52.480;6.056;2023-07-30T06:30:54;24.63;;;5.57;;
60014;SDS011;45867;52.480;6.056;2023-07-30T06:33:38;25.70;;;5.47;;
60014;SDS011;45867;52.480;6.056;2023-07-30T06:36:08;18.70;;;5.13;;
60014;SDS011;45867;52.480;6.056;2023-07-30T06:38:34;25.27;;;5.35;;
60014;SDS011;45867;52.480;6.056;2023-07-30T06:41:03;15.50;;;4.07;;
60014;SDS011;45867;52.480;6.056;2023-07-30T06:43:38;19.98;;;5.00;;
60014;SDS011;45867;52.480;6.056;2023-07-30T06:46:05;18.85;;;5.00;;
60014;SDS011;45867;52.480;6.056;2023-07-30T06:48:34;16.95;;;5.05;;
60014;SDS011;45867;52.480;6.056;2023-07-30T06:51:01;20.30;;;4.80;;
60014;SDS011;45867;52.480;6.056;2023-07-30T06:53:34;24.13;;;4.57;;
60014;SDS011;45867;52.480;6.056;2023-07-30T06:56:01;26.58;;;5.10;;
60014;SDS011;45867;52.480;6.056;2023-07-30T06:58:27;24.88;;;5.25;;
60014;SDS011;45867;52.480;6.056;2023-07-30T07:01:09;31.40;;;4.85;;
60014;SDS011;45867;52.480;6.056;2023-07-30T07:03:35;27.00;;;5.35;;
60014;SDS011;45867;52.480;6.056;2023-07-30T07:06:02;21.77;;;4.70;;
60014;SDS011;45867;52.480;6.056;2023-07-30T07:08:41;21.25;;;4.43;;
60014;SDS011;45867;52.480;6.056;2023-07-30T07:11:07;22.75;;;4.57;;
60014;SDS011;45867;52.480;6.056;2023-07-30T07:13:34;22.10;;;4.55;;
60014;SDS011;45867;52.480;6.056;2023-07-30T07:16:00;26.02;;;4.68;;
60014;SDS011;45867;52.480;6.056;2023-07-30T07:18:30;18.23;;;4.35;;
60014;SDS011;45867;52.480;6.056;2023-07-30T07:20:56;25.52;;;5.15;;
60014;SDS011;45867;52.480;6.056;2023-07-30T07:23:26;22.10;;;4.57;;
60014;SDS011;45867;52.480;6.056;2023-07-30T07:25:52;18.25;;;5.13;;
60014;SDS011;45867;52.480;6.056;2023-07-30T07:28:26;24.37;;;5.80;;
60014;SDS011;45867;52.480;6.056;2023-07-30T07:30:52;16.95;;;4.93;;
60014;SDS011;45867;52.480;6.056;2023-07-30T07:33:25;20.15;;;5.95;;
60014;SDS011;45867;52.480;6.056;2023-07-30T07:39:09;19.98;;;5.22;;
60014;SDS011;45867;52.480;6.056;2023-07-30T07:41:37;18.55;;;4.68;;
60014;SDS011;45867;52.480;6.056;2023-07-30T07:44:16;20.90;;;4.22;;
60014;SDS011;45867;52.480;6.056;2023-07-30T07:46:43;22.58;;;4.80;;
60014;SDS011;45867;52.480;6.056;2023-07-30T07:49:12;16.60;;;4.60;;
60014;SDS011;45867;52.480;6.056;2023-07-30T07:51:38;20.30;;;4.82;;
60014;SDS011;45867;52.480;6.056;2023-07-30T07:54:05;19.60;;;4.85;;
60014;SDS011;45867;52.480;6.056;2023-07-30T07:56:55;19.50;;;4.60;;
60014;SDS011;45867;52.480;6.056;2023-07-30T07:59:22;23.38;;;5.85;;
60014;SDS011;45867;52.480;6.056;2023-07-30T08:01:50;19.38;;;5.07;;
60014;SDS011;45867;52.480;6.056;2023-07-30T08:08:05;24.08;;;5.05;;
60014;SDS011;45867;52.480;6.056;2023-07-30T08:10:38;15.07;;;4.82;;
60014;SDS011;45867;52.480;6.056;2023-07-30T08:13:08;17.60;;;4.80;;
60014;SDS011;45867;52.480;6.056;2023-07-30T08:15:34;18.65;;;4.30;;
60014;SDS011;45867;52.480;6.056;2023-07-30T08:18:01;20.58;;;4.38;;
60014;SDS011;45867;52.480;6.056;2023-07-30T08:20:27;19.25;;;4.28;;
60014;SDS011;45867;52.480;6.056;2023-07-30T08:22:54;20.00;;;4.18;;
60014;SDS011;45867;52.480;6.056;2023-07-30T08:25:25;15.23;;;3.83;;
60014;SDS011;45867;52.480;6.056;2023-07-30T08:27:56;21.13;;;4.32;;
60014;SDS011;45867;52.480;6.056;2023-07-30T08:30:25;22.15;;;4.32;;
60014;SDS011;45867;52.480;6.056;2023-07-30T08:32:56;24.60;;;4.35;;
60014;SDS011;45867;52.480;6.056;2023-07-30T08:35:25;21.02;;;4.40;;
60014;SDS011;45867;52.480;6.056;2023-07-30T08:38:01;20.95;;;4.95;;
60014;SDS011;45867;52.480;6.056;2023-07-30T08:40:31;20.83;;;4.60;;
60014;SDS011;45867;52.480;6.056;2023-07-30T08:42:59;21.65;;;4.18;;
60014;SDS011;45867;52.480;6.056;2023-07-30T08:45:29;14.40;;;3.75;;
60014;SDS011;45867;52.480;6.056;2023-07-30T08:47:56;17.83;;;3.97;;
60014;SDS011;45867;52.480;6.056;2023-07-30T08:50:25;15.75;;;4.15;;
60014;SDS011;45867;52.480;6.056;2023-07-30T08:52:52;14.60;;;3.85;;
60014;SDS011;45867;52.480;6.056;2023-07-30T08:55:21;25.75;;;4.47;;
60014;SDS011;45867;52.480;6.056;2023-07-30T08:57:51;14.95;;;4.28;;
60014;SDS011;45867;52.480;6.056;2023-07-30T09:00:21;17.00;;;3.80;;
60014;SDS011;45867;52.480;6.056;2023-07-30T09:02:58;17.73;;;4.15;;
60014;SDS011;45867;52.480;6.056;2023-07-30T09:05:29;13.80;;;3.63;;
60014;SDS011;45867;52.480;6.056;2023-07-30T09:07:55;16.05;;;3.58;;
60014;SDS011;45867;52.480;6.056;2023-07-30T09:10:26;14.68;;;3.75;;
60014;SDS011;45867;52.480;6.056;2023-07-30T09:12:56;22.52;;;4.80;;
60014;SDS011;45867;52.480;6.056;2023-07-30T09:15:31;10.23;;;2.88;;
60014;SDS011;45867;52.480;6.056;2023-07-30T09:18:04;20.15;;;4.15;;
60014;SDS011;45867;52.480;6.056;2023-07-30T09:20:39;8.73;;;2.70;;
60014;SDS011;45867;52.480;6.056;2023-07-30T09:23:06;21.05;;;3.63;;
60014;SDS011;45867;52.480;6.056;2023-07-30T09:25:34;12.20;;;2.90;;
60014;SDS011;45867;52.480;6.056;2023-07-30T09:28:07;15.15;;;3.28;;
60014;SDS011;45867;52.480;6.056;2023-07-30T09:30:43;12.50;;;3.05;;
60014;SDS011;45867;52.480;6.056;2023-07-30T09:33:18;9.45;;;2.90;;
60014;SDS011;45867;52.480;6.056;2023-07-30T09:35:48;11.57;;;3.53;;
60014;SDS011;45867;52.480;6.056;2023-07-30T09:38:24;12.23;;;2.88;;
60014;SDS011;45867;52.480;6.056;2023-07-30T09:41:00;9.32;;;3.15;;
60014;SDS011;45867;52.480;6.056;2023-07-30T09:43:33;14.25;;;3.13;;
60014;SDS011;45867;52.480;6.056;2023-07-30T09:46:07;14.68;;;3.42;;
60014;SDS011;45867;52.480;6.056;2023-07-30T09:48:55;9.23;;;2.80;;
60014;SDS011;45867;52.480;6.056;2023-07-30T09:51:21;16.70;;;3.50;;
60014;SDS011;45867;52.480;6.056;2023-07-30T09:53:49;13.20;;;3.03;;
60014;SDS011;45867;52.480;6.056;2023-07-30T09:56:26;13.90;;;3.28;;
60014;SDS011;45867;52.480;6.056;2023-07-30T09:58:55;18.13;;;3.78;;
60014;SDS011;45867;52.480;6.056;2023-07-30T10:01:31;10.77;;;3.28;;
60014;SDS011;45867;52.480;6.056;2023-07-30T10:03:59;13.55;;;2.80;;
60014;SDS011;45867;52.480;6.056;2023-07-30T10:06:30;12.73;;;3.15;;
60014;SDS011;45867;52.480;6.056;2023-07-30T10:08:58;11.70;;;2.85;;
60014;SDS011;45867;52.480;6.056;2023-07-30T10:11:26;12.48;;;2.90;;
60014;SDS011;45867;52.480;6.056;2023-07-30T10:13:54;8.65;;;1.90;;
60014;SDS011;45867;52.480;6.056;2023-07-30T10:16:28;6.45;;;2.15;;
60014;SDS011;45867;52.480;6.056;2023-07-30T10:19:08;13.60;;;2.00;;
60014;SDS011;45867;52.480;6.056;2023-07-30T10:21:35;11.90;;;2.47;;
60014;SDS011;45867;52.480;6.056;2023-07-30T10:24:07;11.63;;;2.60;;
60014;SDS011;45867;52.480;6.056;2023-07-30T10:26:34;12.20;;;2.50;;
60014;SDS011;45867;52.480;6.056;2023-07-30T10:32:00;14.32;;;2.47;;
60014;SDS011;45867;52.480;6.056;2023-07-30T10:34:27;19.00;;;2.70;;
60014;SDS011;45867;52.480;6.056;2023-07-30T10:37:10;12.65;;;2.40;;
60014;SDS011;45867;52.480;6.056;2023-07-30T10:39:57;13.63;;;3.50;;
60014;SDS011;45867;52.480;6.056;2023-07-30T10:42:33;16.77;;;2.50;;
60014;SDS011;45867;52.480;6.056;2023-07-30T10:44:59;9.07;;;2.17;;
60014;SDS011;45867;52.480;6.056;2023-07-30T10:47:26;7.97;;;2.33;;
60014;SDS011;45867;52.480;6.056;2023-07-30T10:50:02;13.88;;;2.28;;
60014;SDS011;45867;52.480;6.056;2023-07-30T10:52:29;10.73;;;2.38;;
60014;SDS011;45867;52.480;6.056;2023-07-30T10:54:59;16.45;;;3.00;;
60014;SDS011;45867;52.480;6.056;2023-07-30T10:57:36;6.85;;;1.70;;
60014;SDS011;45867;52.480;6.056;2023-07-30T11:00:02;6.82;;;2.10;;
60014;SDS011;45867;52.480;6.056;2023-07-30T11:02:36;11.60;;;2.75;;
60014;SDS011;45867;52.480;6.056;2023-07-30T11:08:09;9.98;;;2.17;;
60014;SDS011;45867;52.480;6.056;2023-07-30T11:10:54;8.75;;;2.03;;
60014;SDS011;45867;52.480;6.056;2023-07-30T11:13:25;7.65;;;2.20;;
60014;SDS011;45867;52.480;6.056;2023-07-30T11:15:52;12.07;;;2.90;;
60014;SDS011;45867;52.480;6.056;2023-07-30T11:18:24;11.85;;;2.47;;
60014;SDS011;45867;52.480;6.056;2023-07-30T11:21:07;23.95;;;2.45;;
60014;SDS011;45867;52.480;6.056;2023-07-30T11:26:20;8.82;;;2.15;;
60014;SDS011;45867;52.480;6.056;2023-07-30T11:28:56;9.57;;;1.80;;
60014;SDS011;45867;52.480;6.056;2023-07-30T11:31:26;10.25;;;1.73;;
60014;SDS011;45867;52.480;6.056;2023-07-30T11:33:55;5.93;;;1.60;;
60014;SDS011;45867;52.480;6.056;2023-07-30T11:36:25;9.23;;;2.10;;
60014;SDS011;45867;52.480;6.056;2023-07-30T11:38:55;7.03;;;1.70;;
60014;SDS011;45867;52.480;6.056;2023-07-30T11:41:23;8.77;;;2.25;;
60014;SDS011;45867;52.480;6.056;2023-07-30T11:44:05;7.88;;;2.28;;
60014;SDS011;45867;52.480;6.056;2023-07-30T11:46:32;9.00;;;2.40;;
60014;SDS011;45867;52.480;6.056;2023-07-30T11:49:25;11.85;;;2.15;;
60014;SDS011;45867;52.480;6.056;2023-07-30T11:52:09;9.07;;;1.85;;
60014;SDS011;45867;52.480;6.056;2023-07-30T11:54:37;10.23;;;1.60;;
60014;SDS011;45867;52.480;6.056;2023-07-30T11:57:04;7.13;;;2.20;;
60014;SDS011;45867;52.480;6.056;2023-07-30T11:59:33;9.23;;;2.45;;
60014;SDS011;45867;52.480;6.056;2023-07-30T12:02:02;5.15;;;1.48;;
60014;SDS011;45867;52.480;6.056;2023-07-30T12:04:45;8.38;;;1.92;;
60014;SDS011;45867;52.480;6.056;2023-07-30T12:07:30;8.77;;;2.05;;
60014;SDS011;45867;52.480;6.056;2023-07-30T12:10:20;9.63;;;2.03;;
60014;SDS011;45867;52.480;6.056;2023-07-30T12:12:54;8.20;;;1.70;;
60014;SDS011;45867;52.480;6.056;2023-07-30T12:15:21;5.68;;;1.50;;
60014;SDS011;45867;52.480;6.056;2023-07-30T12:17:55;11.55;;;1.60;;
60014;SDS011;45867;52.480;6.056;2023-07-30T12:20:38;7.35;;;1.88;;
60014;SDS011;45867;52.480;6.056;2023-07-30T12:23:05;8.32;;;1.65;;
60014;SDS011;45867;52.480;6.056;2023-07-30T12:25:40;12.68;;;2.13;;
60014;SDS011;45867;52.480;6.056;2023-07-30T12:28:07;6.22;;;1.80;;
60014;SDS011;45867;52.480;6.056;2023-07-30T12:30:36;9.95;;;1.65;;
60014;SDS011;45867;52.480;6.056;2023-07-30T12:33:03;12.32;;;2.30;;
60014;SDS011;45867;52.480;6.056;2023-07-30T12:35:36;8.30;;;2.05;;
60014;SDS011;45867;52.480;6.056;2023-07-30T12:38:03;7.18;;;1.75;;
60014;SDS011;45867;52.480;6.056;2023-07-30T12:40:43;13.70;;;1.73;;
60014;SDS011;45867;52.480;6.056;2023-07-30T12:43:20;12.07;;;1.85;;
60014;SDS011;45867;52.480;6.056;2023-07-30T12:45:47;6.78;;;1.38;;
60014;SDS011;45867;52.480;6.056;2023-07-30T12:48:13;7.93;;;1.58;;
60014;SDS011;45867;52.480;6.056;2023-07-30T12:50:43;12.10;;;2.20;;
60014;SDS011;45867;52.480;6.056;2023-07-30T12:53:22;5.78;;;1.98;;
60014;SDS011;45867;52.480;6.056;2023-07-30T12:56:00;8.05;;;1.80;;
60014;SDS011;45867;52.480;6.056;2023-07-30T12:58:27;8.38;;;2.65;;
60014;SDS011;45867;52.480;6.056;2023-07-30T13:00:56;6.85;;;1.70;;
60014;SDS011;45867;52.480;6.056;2023-07-30T13:03:26;7.25;;;1.50;;
60014;SDS011;45867;52.480;6.056;2023-07-30T13:05:52;5.15;;;1.77;;
60014;SDS011;45867;52.480;6.056;2023-07-30T13:08:31;4.25;;;1.60;;
60014;SDS011;45867;52.480;6.056;2023-07-30T13:11:32;4.78;;;1.27;;
60014;SDS011;45867;52.480;6.056;2023-07-30T13:14:02;7.15;;;1.42;;
60014;SDS011;45867;52.480;6.056;2023-07-30T13:19:21;6.85;;;1.58;;
60014;SDS011;45867;52.480;6.056;2023-07-30T13:21:48;5.45;;;1.55;;
60014;SDS011;45867;52.480;6.056;2023-07-30T13:24:14;7.05;;;1.55;;
60014;SDS011;45867;52.480;6.056;2023-07-30T13:26:41;5.72;;;1.42;;
60014;SDS011;45867;52.480;6.056;2023-07-30T13:29:07;8.43;;;1.67;;
60014;SDS011;45867;52.480;6.056;2023-07-30T13:31:38;8.00;;;1.65;;
60014;SDS011;45867;52.480;6.056;2023-07-30T13:34:05;6.45;;;1.67;;
60014;SDS011;45867;52.480;6.056;2023-07-30T13:36:34;4.72;;;1.08;;
60014;SDS011;45867;52.480;6.056;2023-07-30T13:39:00;5.53;;;1.30;;
60014;SDS011;45867;52.480;6.056;2023-07-30T13:41:29;6.30;;;1.23;;
60014;SDS011;45867;52.480;6.056;2023-07-30T13:44:07;6.68;;;1.58;;
60014;SDS011;45867;52.480;6.056;2023-07-30T13:46:33;5.70;;;1.05;;
60014;SDS011;45867;52.480;6.056;2023-07-30T13:49:00;5.80;;;0.98;;
60014;SDS011;45867;52.480;6.056;2023-07-30T13:51:30;5.07;;;1.30;;
60014;SDS011;45867;52.480;6.056;2023-07-30T13:57:22;4.05;;;1.02;;
60014;SDS011;45867;52.480;6.056;2023-07-30T13:59:59;3.42;;;1.20;;
60014;SDS011;45867;52.480;6.056;2023-07-30T14:02:26;3.40;;;1.30;;
60014;SDS011;45867;52.480;6.056;2023-07-30T14:08:12;4.88;;;1.23;;
60014;SDS011;45867;52.480;6.056;2023-07-30T14:10:44;3.38;;;1.35;;
60014;SDS011;45867;52.480;6.056;2023-07-30T14:13:11;6.13;;;1.48;;
60014;SDS011;45867;52.480;6.056;2023-07-30T14:15:40;4.40;;;1.25;;
60014;SDS011;45867;52.480;6.056;2023-07-30T14:18:07;5.38;;;1.25;;
60014;SDS011;45867;52.480;6.056;2023-07-30T14:20:33;6.20;;;1.50;;
60014;SDS011;45867;52.480;6.056;2023-07-30T14:23:00;7.05;;;1.40;;
60014;SDS011;45867;52.480;6.056;2023-07-30T14:25:26;5.95;;;1.30;;
60014;SDS011;45867;52.480;6.056;2023-07-30T14:27:59;19.40;;;1.25;;
60014;SDS011;45867;52.480;6.056;2023-07-30T14:30:26;5.88;;;1.20;;
60014;SDS011;45867;52.480;6.056;2023-07-30T14:32:52;4.18;;;1.30;;
60014;SDS011;45867;52.480;6.056;2023-07-30T15:04:01;13.90;;;1.80;;
60014;SDS011;45867;52.480;6.056;2023-07-30T15:06:27;7.70;;;1.77;;
60014;SDS011;45867;52.480;6.056;2023-07-30T15:08:58;10.10;;;1.95;;
60014;SDS011;45867;52.480;6.056;2023-07-30T15:11:37;8.50;;;1.60;;
60014;SDS011;45867;52.480;6.056;2023-07-30T15:14:26;5.00;;;1.55;;
60014;SDS011;45867;52.480;6.056;2023-07-30T15:16:56;12.35;;;1.92;;
60014;SDS011;45867;52.480;6.056;2023-07-30T15:19:25;12.13;;;2.03;;
60014;SDS011;45867;52.480;6.056;2023-07-30T15:21:51;6.82;;;1.25;;
60014;SDS011;45867;52.480;6.056;2023-07-30T15:24:19;6.43;;;1.60;;
60014;SDS011;45867;52.480;6.056;2023-07-30T15:26:46;11.25;;;1.65;;
60014;SDS011;45867;52.480;6.056;2023-07-30T15:29:12;6.78;;;1.63;;
60014;SDS011;45867;52.480;6.056;2023-07-30T15:31:39;9.20;;;2.35;;
60014;SDS011;45867;52.480;6.056;2023-07-30T15:34:06;6.95;;;1.83;;
60014;SDS011;45867;52.480;6.056;2023-07-30T15:36:32;7.45;;;2.00;;
60014;SDS011;45867;52.480;6.056;2023-07-30T15:39:00;9.02;;;1.67;;
60014;SDS011;45867;52.480;6.056;2023-07-30T15:41:28;14.38;;;2.10;;
60014;SDS011;45867;52.480;6.056;2023-07-30T15:43:58;7.97;;;1.95;;
60014;SDS011;45867;52.480;6.056;2023-07-30T15:46:24;7.63;;;1.92;;
60014;SDS011;45867;52.480;6.056;2023-07-30T15:48:51;6.10;;;1.90;;
60014;SDS011;45867;52.480;6.056;2023-07-30T15:51:22;8.25;;;2.05;;